Terminal Aerodrome Forecast
Issued by NWS

Home | Current Version | Previous Version | Text Only | Print | Product List | Glossary On
Versions: 1 2 3 4 5 6 7 8 9 10 11 12 13 14 15 16 17 18 19 20 21 22 23
000
FTUS41 KPBZ 211700 RRA
TAFDUJ
TAF
KDUJ 211744Z 2118/2218 22010G18KT P6SM VCTS SCT025CB BKN050
      TEMPO 2121/2123 28015G25KT 4SM -TSRA BKN035CB
     FM212300 27015G25KT P6SM BKN040
     FM220300 31009G15KT P6SM BKN015 BKN025
     FM221000 30007KT P6SM VCSH SCT008 OVC015=

USA.gov is the U.S. government's official web portal to all federal, state and local government web resources and services.